sensor_id;sensor_type;location;lat;lon;timestamp;P1;durP1;ratioP1;P2;durP2;ratioP2
64738;SDS011;51175;51.186;0.276;2023-09-08T00:00:20;28.13;;;19.27;;
64738;SDS011;51175;51.186;0.276;2023-09-08T00:00:51;29.33;;;19.48;;
64738;SDS011;51175;51.186;0.276;2023-09-08T00:01:21;29.45;;;18.25;;
64738;SDS011;51175;51.186;0.276;2023-09-08T00:01:52;26.40;;;18.05;;
64738;SDS011;51175;51.186;0.276;2023-09-08T00:02:22;28.92;;;19.52;;
64738;SDS011;51175;51.186;0.276;2023-09-08T00:02:55;28.20;;;18.33;;
64738;SDS011;51175;51.186;0.276;2023-09-08T00:03:25;30.13;;;18.50;;
64738;SDS011;51175;51.186;0.276;2023-09-08T00:03:55;28.60;;;18.95;;
64738;SDS011;51175;51.186;0.276;2023-09-08T00:04:26;27.73;;;18.05;;
64738;SDS011;51175;51.186;0.276;2023-09-08T00:04:56;27.05;;;19.05;;
64738;SDS011;51175;51.186;0.276;2023-09-08T00:05:27;25.83;;;18.95;;
64738;SDS011;51175;51.186;0.276;2023-09-08T00:05:57;26.70;;;18.42;;
64738;SDS011;51175;51.186;0.276;2023-09-08T00:06:27;28.90;;;19.27;;
64738;SDS011;51175;51.186;0.276;2023-09-08T00:06:58;28.67;;;19.20;;
64738;SDS011;51175;51.186;0.276;2023-09-08T00:07:29;27.52;;;18.17;;
64738;SDS011;51175;51.186;0.276;2023-09-08T00:07:59;27.17;;;18.17;;
64738;SDS011;51175;51.186;0.276;2023-09-08T00:08:29;28.85;;;18.33;;
64738;SDS011;51175;51.186;0.276;2023-09-08T00:09:00;23.65;;;16.13;;
64738;SDS011;51175;51.186;0.276;2023-09-08T00:09:32;26.77;;;16.63;;
64738;SDS011;51175;51.186;0.276;2023-09-08T00:10:03;26.73;;;17.65;;
64738;SDS011;51175;51.186;0.276;2023-09-08T00:10:33;24.63;;;17.00;;
64738;SDS011;51175;51.186;0.276;2023-09-08T00:11:04;25.13;;;17.77;;
64738;SDS011;51175;51.186;0.276;2023-09-08T00:11:35;26.50;;;17.52;;
64738;SDS011;51175;51.186;0.276;2023-09-08T00:12:05;25.02;;;16.88;;
64738;SDS011;51175;51.186;0.276;2023-09-08T00:12:36;25.33;;;17.60;;
64738;SDS011;51175;51.186;0.276;2023-09-08T00:13:06;24.83;;;17.25;;
64738;SDS011;51175;51.186;0.276;2023-09-08T00:13:36;26.90;;;17.88;;
64738;SDS011;51175;51.186;0.276;2023-09-08T00:14:07;25.35;;;17.67;;
64738;SDS011;51175;51.186;0.276;2023-09-08T00:14:37;26.63;;;17.67;;
64738;SDS011;51175;51.186;0.276;2023-09-08T00:15:09;26.05;;;17.17;;
64738;SDS011;51175;51.186;0.276;2023-09-08T00:15:39;27.83;;;18.35;;
64738;SDS011;51175;51.186;0.276;2023-09-08T00:16:10;25.23;;;16.80;;
64738;SDS011;51175;51.186;0.276;2023-09-08T00:16:40;24.40;;;16.85;;
64738;SDS011;51175;51.186;0.276;2023-09-08T00:17:12;26.00;;;16.83;;
64738;SDS011;51175;51.186;0.276;2023-09-08T00:17:43;25.33;;;16.25;;
64738;SDS011;51175;51.186;0.276;2023-09-08T00:18:13;25.45;;;17.58;;
64738;SDS011;51175;51.186;0.276;2023-09-08T00:18:44;24.70;;;16.17;;
64738;SDS011;51175;51.186;0.276;2023-09-08T00:19:14;25.55;;;16.58;;
64738;SDS011;51175;51.186;0.276;2023-09-08T00:19:44;24.02;;;17.55;;
64738;SDS011;51175;51.186;0.276;2023-09-08T00:20:15;24.25;;;17.13;;
64738;SDS011;51175;51.186;0.276;2023-09-08T00:20:45;23.55;;;16.05;;
64738;SDS011;51175;51.186;0.276;2023-09-08T00:21:16;21.73;;;14.77;;
64738;SDS011;51175;51.186;0.276;2023-09-08T00:21:46;25.27;;;17.25;;
64738;SDS011;51175;51.186;0.276;2023-09-08T00:22:16;26.08;;;16.38;;
64738;SDS011;51175;51.186;0.276;2023-09-08T00:22:47;25.77;;;16.83;;
64738;SDS011;51175;51.186;0.276;2023-09-08T00:23:17;23.30;;;16.15;;
64738;SDS011;51175;51.186;0.276;2023-09-08T00:23:47;24.65;;;16.65;;
64738;SDS011;51175;51.186;0.276;2023-09-08T00:24:18;25.27;;;16.27;;
64738;SDS011;51175;51.186;0.276;2023-09-08T00:24:48;25.80;;;16.48;;
64738;SDS011;51175;51.186;0.276;2023-09-08T00:25:19;23.17;;;15.82;;
64738;SDS011;51175;51.186;0.276;2023-09-08T00:25:49;24.08;;;16.67;;
64738;SDS011;51175;51.186;0.276;2023-09-08T00:26:20;23.83;;;15.80;;
64738;SDS011;51175;51.186;0.276;2023-09-08T00:26:50;25.80;;;17.15;;
64738;SDS011;51175;51.186;0.276;2023-09-08T00:27:21;22.00;;;15.52;;
64738;SDS011;51175;51.186;0.276;2023-09-08T00:27:51;24.33;;;16.27;;
64738;SDS011;51175;51.186;0.276;2023-09-08T00:28:21;21.40;;;14.32;;
64738;SDS011;51175;51.186;0.276;2023-09-08T00:28:52;24.67;;;16.67;;
64738;SDS011;51175;51.186;0.276;2023-09-08T00:29:22;25.90;;;16.92;;
64738;SDS011;51175;51.186;0.276;2023-09-08T00:29:52;23.17;;;15.40;;
64738;SDS011;51175;51.186;0.276;2023-09-08T00:30:23;23.50;;;15.20;;
64738;SDS011;51175;51.186;0.276;2023-09-08T00:30:53;22.13;;;15.77;;
64738;SDS011;51175;51.186;0.276;2023-09-08T00:31:23;22.73;;;15.40;;
64738;SDS011;51175;51.186;0.276;2023-09-08T00:31:54;21.58;;;15.18;;
64738;SDS011;51175;51.186;0.276;2023-09-08T00:32:24;22.15;;;15.38;;
64738;SDS011;51175;51.186;0.276;2023-09-08T00:32:55;20.92;;;14.50;;
64738;SDS011;51175;51.186;0.276;2023-09-08T00:33:25;22.38;;;14.52;;
64738;SDS011;51175;51.186;0.276;2023-09-08T00:33:55;24.25;;;15.48;;
64738;SDS011;51175;51.186;0.276;2023-09-08T00:34:26;25.02;;;15.73;;
64738;SDS011;51175;51.186;0.276;2023-09-08T00:34:56;21.13;;;15.38;;
64738;SDS011;51175;51.186;0.276;2023-09-08T00:35:26;21.58;;;14.90;;
64738;SDS011;51175;51.186;0.276;2023-09-08T00:35:57;26.83;;;15.93;;
64738;SDS011;51175;51.186;0.276;2023-09-08T00:36:28;22.15;;;15.10;;
64738;SDS011;51175;51.186;0.276;2023-09-08T00:36:58;22.38;;;14.07;;
64738;SDS011;51175;51.186;0.276;2023-09-08T00:37:34;22.92;;;15.20;;
64738;SDS011;51175;51.186;0.276;2023-09-08T00:38:05;21.77;;;15.02;;
64738;SDS011;51175;51.186;0.276;2023-09-08T00:38:35;22.52;;;15.80;;
64738;SDS011;51175;51.186;0.276;2023-09-08T00:39:05;20.83;;;14.50;;
64738;SDS011;51175;51.186;0.276;2023-09-08T00:39:37;21.20;;;13.95;;
64738;SDS011;51175;51.186;0.276;2023-09-08T00:40:08;22.92;;;15.15;;
64738;SDS011;51175;51.186;0.276;2023-09-08T00:40:38;20.70;;;14.98;;
64738;SDS011;51175;51.186;0.276;2023-09-08T00:41:09;20.88;;;15.15;;
64738;SDS011;51175;51.186;0.276;2023-09-08T00:41:39;22.25;;;15.23;;
64738;SDS011;51175;51.186;0.276;2023-09-08T00:42:09;22.08;;;14.38;;
64738;SDS011;51175;51.186;0.276;2023-09-08T00:42:40;19.83;;;13.73;;
64738;SDS011;51175;51.186;0.276;2023-09-08T00:43:10;21.95;;;15.02;;
64738;SDS011;51175;51.186;0.276;2023-09-08T00:43:40;20.52;;;15.10;;
64738;SDS011;51175;51.186;0.276;2023-09-08T00:44:11;20.63;;;12.77;;
64738;SDS011;51175;51.186;0.276;2023-09-08T00:44:41;20.55;;;13.85;;
64738;SDS011;51175;51.186;0.276;2023-09-08T00:45:12;21.75;;;13.75;;
64738;SDS011;51175;51.186;0.276;2023-09-08T00:45:42;20.95;;;13.90;;
64738;SDS011;51175;51.186;0.276;2023-09-08T00:46:13;21.38;;;14.27;;
64738;SDS011;51175;51.186;0.276;2023-09-08T00:46:43;18.77;;;13.25;;
64738;SDS011;51175;51.186;0.276;2023-09-08T00:47:14;19.30;;;13.50;;
64738;SDS011;51175;51.186;0.276;2023-09-08T00:47:44;20.55;;;14.38;;
64738;SDS011;51175;51.186;0.276;2023-09-08T00:48:15;21.55;;;14.65;;
64738;SDS011;51175;51.186;0.276;2023-09-08T00:48:45;18.73;;;13.20;;
64738;SDS011;51175;51.186;0.276;2023-09-08T00:49:15;20.17;;;14.18;;
64738;SDS011;51175;51.186;0.276;2023-09-08T00:49:46;19.65;;;13.05;;
64738;SDS011;51175;51.186;0.276;2023-09-08T00:50:19;17.92;;;12.32;;
64738;SDS011;51175;51.186;0.276;2023-09-08T00:50:49;22.80;;;13.77;;
64738;SDS011;51175;51.186;0.276;2023-09-08T00:51:20;20.00;;;13.82;;
64738;SDS011;51175;51.186;0.276;2023-09-08T00:51:51;18.58;;;13.10;;
64738;SDS011;51175;51.186;0.276;2023-09-08T00:52:21;18.52;;;12.10;;
64738;SDS011;51175;51.186;0.276;2023-09-08T00:52:51;19.13;;;12.20;;
64738;SDS011;51175;51.186;0.276;2023-09-08T00:53:22;20.95;;;13.43;;
64738;SDS011;51175;51.186;0.276;2023-09-08T00:53:53;18.10;;;12.60;;
64738;SDS011;51175;51.186;0.276;2023-09-08T00:54:23;15.60;;;11.35;;
64738;SDS011;51175;51.186;0.276;2023-09-08T00:54:54;18.95;;;12.93;;
64738;SDS011;51175;51.186;0.276;2023-09-08T00:55:24;16.20;;;11.60;;
64738;SDS011;51175;51.186;0.276;2023-09-08T00:55:54;17.20;;;12.65;;
64738;SDS011;51175;51.186;0.276;2023-09-08T00:56:26;19.33;;;12.77;;
64738;SDS011;51175;51.186;0.276;2023-09-08T00:56:57;14.48;;;10.82;;
64738;SDS011;51175;51.186;0.276;2023-09-08T00:57:29;16.85;;;11.80;;
64738;SDS011;51175;51.186;0.276;2023-09-08T00:58:00;17.38;;;12.07;;
64738;SDS011;51175;51.186;0.276;2023-09-08T00:58:31;16.90;;;12.10;;
64738;SDS011;51175;51.186;0.276;2023-09-08T00:59:02;17.23;;;12.13;;
64738;SDS011;51175;51.186;0.276;2023-09-08T00:59:34;16.73;;;11.27;;
64738;SDS011;51175;51.186;0.276;2023-09-08T01:00:05;17.50;;;11.43;;
64738;SDS011;51175;51.186;0.276;2023-09-08T01:00:37;14.73;;;10.73;;
64738;SDS011;51175;51.186;0.276;2023-09-08T01:01:07;15.25;;;10.63;;
64738;SDS011;51175;51.186;0.276;2023-09-08T01:01:38;19.45;;;12.45;;
64738;SDS011;51175;51.186;0.276;2023-09-08T01:02:08;15.95;;;10.95;;
64738;SDS011;51175;51.186;0.276;2023-09-08T01:02:39;14.63;;;9.45;;
64738;SDS011;51175;51.186;0.276;2023-09-08T01:03:11;13.82;;;9.75;;
64738;SDS011;51175;51.186;0.276;2023-09-08T01:03:41;13.90;;;10.65;;
64738;SDS011;51175;51.186;0.276;2023-09-08T01:04:12;16.00;;;10.38;;
64738;SDS011;51175;51.186;0.276;2023-09-08T01:04:43;15.68;;;11.73;;
64738;SDS011;51175;51.186;0.276;2023-09-08T01:05:15;15.93;;;10.57;;
64738;SDS011;51175;51.186;0.276;2023-09-08T01:05:46;15.43;;;9.85;;
64738;SDS011;51175;51.186;0.276;2023-09-08T01:06:18;13.63;;;9.82;;
64738;SDS011;51175;51.186;0.276;2023-09-08T01:06:49;14.15;;;9.23;;
64738;SDS011;51175;51.186;0.276;2023-09-08T01:07:20;15.93;;;10.25;;
64738;SDS011;51175;51.186;0.276;2023-09-08T01:07:51;14.50;;;10.00;;
64738;SDS011;51175;51.186;0.276;2023-09-08T01:08:23;13.57;;;9.45;;
64738;SDS011;51175;51.186;0.276;2023-09-08T01:08:54;15.38;;;9.85;;
64738;SDS011;51175;51.186;0.276;2023-09-08T01:09:25;14.50;;;10.00;;
64738;SDS011;51175;51.186;0.276;2023-09-08T01:09:56;13.90;;;9.52;;
64738;SDS011;51175;51.186;0.276;2023-09-08T01:10:27;14.07;;;10.00;;
64738;SDS011;51175;51.186;0.276;2023-09-08T01:10:57;12.85;;;9.13;;
64738;SDS011;51175;51.186;0.276;2023-09-08T01:11:28;16.05;;;10.20;;
64738;SDS011;51175;51.186;0.276;2023-09-08T01:12:02;13.02;;;9.38;;
64738;SDS011;51175;51.186;0.276;2023-09-08T01:12:34;13.38;;;9.30;;
64738;SDS011;51175;51.186;0.276;2023-09-08T01:13:05;13.35;;;9.65;;
64738;SDS011;51175;51.186;0.276;2023-09-08T01:13:35;13.35;;;8.95;;
64738;SDS011;51175;51.186;0.276;2023-09-08T01:14:05;12.43;;;8.77;;
64738;SDS011;51175;51.186;0.276;2023-09-08T01:14:36;11.18;;;8.25;;
64738;SDS011;51175;51.186;0.276;2023-09-08T01:15:06;12.40;;;8.90;;
64738;SDS011;51175;51.186;0.276;2023-09-08T01:15:37;12.13;;;8.48;;
64738;SDS011;51175;51.186;0.276;2023-09-08T01:16:08;11.40;;;8.57;;
64738;SDS011;51175;51.186;0.276;2023-09-08T01:16:38;11.43;;;9.00;;
64738;SDS011;51175;51.186;0.276;2023-09-08T01:17:10;13.30;;;9.57;;
64738;SDS011;51175;51.186;0.276;2023-09-08T01:17:42;12.77;;;8.63;;
64738;SDS011;51175;51.186;0.276;2023-09-08T01:18:12;12.13;;;8.57;;
64738;SDS011;51175;51.186;0.276;2023-09-08T01:18:43;10.98;;;7.90;;
64738;SDS011;51175;51.186;0.276;2023-09-08T01:19:16;15.70;;;8.75;;
64738;SDS011;51175;51.186;0.276;2023-09-08T01:19:47;13.63;;;9.05;;
64738;SDS011;51175;51.186;0.276;2023-09-08T01:20:23;12.95;;;8.10;;
64738;SDS011;51175;51.186;0.276;2023-09-08T01:21:43;12.02;;;8.32;;
64738;SDS011;51175;51.186;0.276;2023-09-08T01:24:11;11.20;;;8.02;;
64738;SDS011;51175;51.186;0.276;2023-09-08T01:25:04;10.50;;;7.18;;
64738;SDS011;51175;51.186;0.276;2023-09-08T01:25:46;16.00;;;8.05;;
64738;SDS011;51175;51.186;0.276;2023-09-08T01:26:23;10.18;;;7.20;;
64738;SDS011;51175;51.186;0.276;2023-09-08T01:26:59;9.55;;;7.50;;
64738;SDS011;51175;51.186;0.276;2023-09-08T01:27:32;11.45;;;8.13;;
64738;SDS011;51175;51.186;0.276;2023-09-08T01:28:05;9.13;;;6.78;;
64738;SDS011;51175;51.186;0.276;2023-09-08T01:28:36;11.93;;;7.82;;
64738;SDS011;51175;51.186;0.276;2023-09-08T01:29:09;11.52;;;7.55;;
64738;SDS011;51175;51.186;0.276;2023-09-08T01:29:41;10.00;;;7.35;;
64738;SDS011;51175;51.186;0.276;2023-09-08T01:30:12;8.55;;;6.22;;
64738;SDS011;51175;51.186;0.276;2023-09-08T01:30:43;10.80;;;7.03;;
64738;SDS011;51175;51.186;0.276;2023-09-08T01:31:18;9.43;;;6.93;;
64738;SDS011;51175;51.186;0.276;2023-09-08T01:31:49;10.00;;;6.43;;
64738;SDS011;51175;51.186;0.276;2023-09-08T01:32:20;9.70;;;6.68;;
64738;SDS011;51175;51.186;0.276;2023-09-08T01:32:51;11.43;;;7.32;;
64738;SDS011;51175;51.186;0.276;2023-09-08T01:33:23;9.52;;;6.47;;
64738;SDS011;51175;51.186;0.276;2023-09-08T01:33:54;9.38;;;6.03;;
64738;SDS011;51175;51.186;0.276;2023-09-08T01:34:25;10.25;;;7.80;;
64738;SDS011;51175;51.186;0.276;2023-09-08T01:34:56;11.43;;;7.18;;
64738;SDS011;51175;51.186;0.276;2023-09-08T01:35:29;7.93;;;6.20;;
64738;SDS011;51175;51.186;0.276;2023-09-08T01:35:59;12.38;;;6.55;;
64738;SDS011;51175;51.186;0.276;2023-09-08T01:36:30;9.48;;;6.47;;
64738;SDS011;51175;51.186;0.276;2023-09-08T01:37:00;8.73;;;6.45;;
64738;SDS011;51175;51.186;0.276;2023-09-08T01:37:34;9.35;;;6.45;;
64738;SDS011;51175;51.186;0.276;2023-09-08T01:38:04;8.95;;;6.65;;
64738;SDS011;51175;51.186;0.276;2023-09-08T01:38:35;8.95;;;6.20;;
64738;SDS011;51175;51.186;0.276;2023-09-08T01:39:05;8.30;;;6.18;;
64738;SDS011;51175;51.186;0.276;2023-09-08T01:39:35;9.30;;;6.55;;
64738;SDS011;51175;51.186;0.276;2023-09-08T01:40:06;10.98;;;6.30;;
64738;SDS011;51175;51.186;0.276;2023-09-08T01:40:36;10.25;;;6.45;;
64738;SDS011;51175;51.186;0.276;2023-09-08T01:41:07;9.27;;;6.80;;
64738;SDS011;51175;51.186;0.276;2023-09-08T01:41:37;10.82;;;7.55;;
64738;SDS011;51175;51.186;0.276;2023-09-08T01:42:07;8.38;;;5.95;;
64738;SDS011;51175;51.186;0.276;2023-09-08T01:42:38;9.30;;;6.75;;
64738;SDS011;51175;51.186;0.276;2023-09-08T01:43:09;8.45;;;6.60;;
64738;SDS011;51175;51.186;0.276;2023-09-08T01:43:39;9.65;;;6.15;;
64738;SDS011;51175;51.186;0.276;2023-09-08T01:44:09;10.85;;;6.80;;
64738;SDS011;51175;51.186;0.276;2023-09-08T01:44:41;8.00;;;5.53;;
64738;SDS011;51175;51.186;0.276;2023-09-08T01:45:12;10.05;;;6.18;;
64738;SDS011;51175;51.186;0.276;2023-09-08T01:45:42;8.48;;;5.50;;
64738;SDS011;51175;51.186;0.276;2023-09-08T01:46:12;7.97;;;5.80;;
64738;SDS011;51175;51.186;0.276;2023-09-08T01:46:43;8.70;;;5.80;;
64738;SDS011;51175;51.186;0.276;2023-09-08T01:47:13;7.40;;;5.38;;
64738;SDS011;51175;51.186;0.276;2023-09-08T01:47:43;8.13;;;5.70;;
64738;SDS011;51175;51.186;0.276;2023-09-08T01:48:14;8.05;;;5.43;;
64738;SDS011;51175;51.186;0.276;2023-09-08T01:48:44;7.30;;;5.60;;
64738;SDS011;51175;51.186;0.276;2023-09-08T01:49:14;8.43;;;6.38;;
64738;SDS011;51175;51.186;0.276;2023-09-08T01:49:45;6.65;;;5.10;;
64738;SDS011;51175;51.186;0.276;2023-09-08T01:50:15;10.32;;;6.30;;
64738;SDS011;51175;51.186;0.276;2023-09-08T01:50:51;10.93;;;5.80;;
64738;SDS011;51175;51.186;0.276;2023-09-08T01:51:21;7.78;;;6.13;;
64738;SDS011;51175;51.186;0.276;2023-09-08T01:51:52;7.72;;;5.78;;
64738;SDS011;51175;51.186;0.276;2023-09-08T01:52:22;8.60;;;6.30;;
64738;SDS011;51175;51.186;0.276;2023-09-08T01:52:54;7.80;;;5.65;;
64738;SDS011;51175;51.186;0.276;2023-09-08T01:53:24;8.95;;;6.78;;
64738;SDS011;51175;51.186;0.276;2023-09-08T01:53:54;7.75;;;6.00;;
64738;SDS011;51175;51.186;0.276;2023-09-08T01:54:25;8.18;;;5.93;;
64738;SDS011;51175;51.186;0.276;2023-09-08T01:54:55;6.60;;;5.03;;
64738;SDS011;51175;51.186;0.276;2023-09-08T01:55:25;8.10;;;5.63;;
64738;SDS011;51175;51.186;0.276;2023-09-08T01:55:56;7.97;;;5.35;;
64738;SDS011;51175;51.186;0.276;2023-09-08T01:56:26;9.05;;;6.00;;
64738;SDS011;51175;51.186;0.276;2023-09-08T01:56:56;9.00;;;5.82;;
64738;SDS011;51175;51.186;0.276;2023-09-08T01:57:27;7.95;;;5.72;;
64738;SDS011;51175;51.186;0.276;2023-09-08T01:57:57;7.82;;;5.53;;
64738;SDS011;51175;51.186;0.276;2023-09-08T01:58:27;7.43;;;5.80;;
64738;SDS011;51175;51.186;0.276;2023-09-08T01:58:58;8.15;;;5.57;;
64738;SDS011;51175;51.186;0.276;2023-09-08T01:59:29;7.43;;;5.68;;
64738;SDS011;51175;51.186;0.276;2023-09-08T02:00:00;7.05;;;5.15;;
64738;SDS011;51175;51.186;0.276;2023-09-08T02:00:30;7.95;;;5.45;;
64738;SDS011;51175;51.186;0.276;2023-09-08T02:01:01;8.05;;;5.63;;
64738;SDS011;51175;51.186;0.276;2023-09-08T02:01:35;8.35;;;5.60;;
64738;SDS011;51175;51.186;0.276;2023-09-08T02:02:06;9.93;;;6.03;;
64738;SDS011;51175;51.186;0.276;2023-09-08T02:02:37;7.30;;;5.85;;
64738;SDS011;51175;51.186;0.276;2023-09-08T02:03:07;6.80;;;5.75;;
64738;SDS011;51175;51.186;0.276;2023-09-08T02:03:37;7.40;;;5.50;;
64738;SDS011;51175;51.186;0.276;2023-09-08T02:04:08;7.68;;;5.97;;
64738;SDS011;51175;51.186;0.276;2023-09-08T02:04:38;7.85;;;6.03;;
64738;SDS011;51175;51.186;0.276;2023-09-08T02:05:09;7.10;;;4.85;;
64738;SDS011;51175;51.186;0.276;2023-09-08T02:05:40;7.40;;;5.60;;
64738;SDS011;51175;51.186;0.276;2023-09-08T02:06:10;9.02;;;6.00;;
64738;SDS011;51175;51.186;0.276;2023-09-08T02:06:40;7.80;;;5.72;;
64738;SDS011;51175;51.186;0.276;2023-09-08T02:07:11;8.73;;;5.50;;
64738;SDS011;51175;51.186;0.276;2023-09-08T02:07:41;7.40;;;5.47;;
64738;SDS011;51175;51.186;0.276;2023-09-08T02:08:11;8.43;;;5.70;;
64738;SDS011;51175;51.186;0.276;2023-09-08T02:08:42;7.03;;;5.65;;
64738;SDS011;51175;51.186;0.276;2023-09-08T02:09:13;7.70;;;5.07;;
64738;SDS011;51175;51.186;0.276;2023-09-08T02:09:44;7.28;;;5.38;;
64738;SDS011;51175;51.186;0.276;2023-09-08T02:10:14;7.15;;;5.10;;
64738;SDS011;51175;51.186;0.276;2023-09-08T02:10:45;9.43;;;4.95;;
64738;SDS011;51175;51.186;0.276;2023-09-08T02:11:15;9.82;;;4.75;;
64738;SDS011;51175;51.186;0.276;2023-09-08T02:11:45;9.50;;;6.28;;
64738;SDS011;51175;51.186;0.276;2023-09-08T02:12:16;7.53;;;5.78;;
64738;SDS011;51175;51.186;0.276;2023-09-08T02:12:46;7.07;;;5.22;;
64738;SDS011;51175;51.186;0.276;2023-09-08T02:13:16;5.97;;;4.78;;
64738;SDS011;51175;51.186;0.276;2023-09-08T02:13:47;8.98;;;5.13;;
64738;SDS011;51175;51.186;0.276;2023-09-08T02:14:17;6.43;;;4.97;;
64738;SDS011;51175;51.186;0.276;2023-09-08T02:14:47;8.43;;;5.28;;
64738;SDS011;51175;51.186;0.276;2023-09-08T02:15:18;7.38;;;5.43;;
64738;SDS011;51175;51.186;0.276;2023-09-08T02:15:48;8.18;;;6.03;;
64738;SDS011;51175;51.186;0.276;2023-09-08T02:16:18;8.10;;;5.55;;
64738;SDS011;51175;51.186;0.276;2023-09-08T02:16:49;7.25;;;4.97;;
64738;SDS011;51175;51.186;0.276;2023-09-08T02:17:19;7.40;;;4.93;;
64738;SDS011;51175;51.186;0.276;2023-09-08T02:17:53;8.23;;;5.32;;
64738;SDS011;51175;51.186;0.276;2023-09-08T02:18:25;7.20;;;4.78;;
64738;SDS011;51175;51.186;0.276;2023-09-08T02:18:56;7.30;;;5.18;;
64738;SDS011;51175;51.186;0.276;2023-09-08T02:19:26;6.60;;;4.50;;
64738;SDS011;51175;51.186;0.276;2023-09-08T02:19:56;6.82;;;4.90;;
64738;SDS011;51175;51.186;0.276;2023-09-08T02:20:27;6.28;;;4.25;;
64738;SDS011;51175;51.186;0.276;2023-09-08T02:20:58;7.47;;;5.10;;
64738;SDS011;51175;51.186;0.276;2023-09-08T02:21:28;6.30;;;4.70;;
64738;SDS011;51175;51.186;0.276;2023-09-08T02:21:59;6.03;;;4.68;;
64738;SDS011;51175;51.186;0.276;2023-09-08T02:22:29;6.18;;;4.93;;
64738;SDS011;51175;51.186;0.276;2023-09-08T02:23:04;5.90;;;4.72;;
64738;SDS011;51175;51.186;0.276;2023-09-08T02:23:35;6.60;;;4.30;;
64738;SDS011;51175;51.186;0.276;2023-09-08T02:24:06;6.25;;;4.78;;
64738;SDS011;51175;51.186;0.276;2023-09-08T02:24:36;7.72;;;5.43;;
64738;SDS011;51175;51.186;0.276;2023-09-08T02:25:07;6.40;;;4.50;;
64738;SDS011;51175;51.186;0.276;2023-09-08T02:25:37;6.82;;;4.93;;
64738;SDS011;51175;51.186;0.276;2023-09-08T02:26:08;7.05;;;5.25;;
64738;SDS011;51175;51.186;0.276;2023-09-08T02:26:38;6.85;;;5.30;;
64738;SDS011;51175;51.186;0.276;2023-09-08T02:27:09;5.28;;;4.60;;
64738;SDS011;51175;51.186;0.276;2023-09-08T02:27:39;9.15;;;5.18;;
64738;SDS011;51175;51.186;0.276;2023-09-08T02:28:10;6.47;;;4.75;;
64738;SDS011;51175;51.186;0.276;2023-09-08T02:28:40;5.38;;;4.22;;
64738;SDS011;51175;51.186;0.276;2023-09-08T02:29:11;6.00;;;4.30;;
64738;SDS011;51175;51.186;0.276;2023-09-08T02:29:41;8.73;;;5.07;;
64738;SDS011;51175;51.186;0.276;2023-09-08T02:30:11;7.65;;;5.07;;
64738;SDS011;51175;51.186;0.276;2023-09-08T02:30:42;6.55;;;4.50;;
64738;SDS011;51175;51.186;0.276;2023-09-08T02:31:12;7.35;;;5.05;;
64738;SDS011;51175;51.186;0.276;2023-09-08T02:31:43;6.00;;;4.53;;
64738;SDS011;51175;51.186;0.276;2023-09-08T02:32:16;7.07;;;5.03;;
64738;SDS011;51175;51.186;0.276;2023-09-08T02:32:46;7.03;;;4.72;;
64738;SDS011;51175;51.186;0.276;2023-09-08T02:33:17;6.38;;;5.07;;
64738;SDS011;51175;51.186;0.276;2023-09-08T02:33:47;8.82;;;5.40;;
64738;SDS011;51175;51.186;0.276;2023-09-08T02:34:17;5.88;;;4.43;;
64738;SDS011;51175;51.186;0.276;2023-09-08T02:34:48;6.35;;;4.05;;
64738;SDS011;51175;51.186;0.276;2023-09-08T02:35:19;6.90;;;4.88;;
64738;SDS011;51175;51.186;0.276;2023-09-08T02:35:50;5.82;;;4.50;;
64738;SDS011;51175;51.186;0.276;2023-09-08T02:36:20;8.32;;;4.78;;
64738;SDS011;51175;51.186;0.276;2023-09-08T02:36:55;7.10;;;5.20;;
64738;SDS011;51175;51.186;0.276;2023-09-08T02:37:25;6.15;;;4.60;;
64738;SDS011;51175;51.186;0.276;2023-09-08T02:37:55;5.70;;;4.53;;
64738;SDS011;51175;51.186;0.276;2023-09-08T02:38:26;5.72;;;4.70;;
64738;SDS011;51175;51.186;0.276;2023-09-08T02:38:56;8.40;;;4.43;;
64738;SDS011;51175;51.186;0.276;2023-09-08T02:39:27;8.30;;;5.07;;
64738;SDS011;51175;51.186;0.276;2023-09-08T02:39:58;6.38;;;4.45;;
64738;SDS011;51175;51.186;0.276;2023-09-08T02:40:28;5.97;;;4.28;;
64738;SDS011;51175;51.186;0.276;2023-09-08T02:40:59;5.32;;;4.35;;
64738;SDS011;51175;51.186;0.276;2023-09-08T02:41:29;7.68;;;5.50;;
64738;SDS011;51175;51.186;0.276;2023-09-08T02:41:59;6.18;;;4.30;;
64738;SDS011;51175;51.186;0.276;2023-09-08T02:42:30;5.43;;;4.20;;
64738;SDS011;51175;51.186;0.276;2023-09-08T02:43:01;5.95;;;4.38;;
64738;SDS011;51175;51.186;0.276;2023-09-08T02:43:31;5.82;;;4.65;;
64738;SDS011;51175;51.186;0.276;2023-09-08T02:44:02;6.05;;;4.63;;
64738;SDS011;51175;51.186;0.276;2023-09-08T02:44:32;6.13;;;5.03;;
64738;SDS011;51175;51.186;0.276;2023-09-08T02:45:02;5.78;;;4.32;;
64738;SDS011;51175;51.186;0.276;2023-09-08T02:45:33;6.00;;;4.53;;
64738;SDS011;51175;51.186;0.276;2023-09-08T02:46:04;5.05;;;4.25;;
64738;SDS011;51175;51.186;0.276;2023-09-08T02:46:34;5.65;;;4.60;;
64738;SDS011;51175;51.186;0.276;2023-09-08T02:47:05;6.60;;;4.75;;
64738;SDS011;51175;51.186;0.276;2023-09-08T02:47:36;6.60;;;4.55;;
64738;SDS011;51175;51.186;0.276;2023-09-08T02:48:06;7.38;;;4.53;;
64738;SDS011;51175;51.186;0.276;2023-09-08T02:48:37;7.28;;;4.47;;
64738;SDS011;51175;51.186;0.276;2023-09-08T02:49:08;5.22;;;4.38;;
64738;SDS011;51175;51.186;0.276;2023-09-08T02:49:39;7.22;;;4.80;;
64738;SDS011;51175;51.186;0.276;2023-09-08T02:50:09;6.72;;;5.07;;
64738;SDS011;51175;51.186;0.276;2023-09-08T02:50:39;6.75;;;4.85;;
64738;SDS011;51175;51.186;0.276;2023-09-08T02:51:10;6.00;;;4.20;;
64738;SDS011;51175;51.186;0.276;2023-09-08T02:51:42;10.10;;;5.22;;
64738;SDS011;51175;51.186;0.276;2023-09-08T02:52:12;5.65;;;4.47;;
64738;SDS011;51175;51.186;0.276;2023-09-08T02:52:43;5.57;;;4.60;;
64738;SDS011;51175;51.186;0.276;2023-09-08T02:53:14;5.75;;;4.32;;
64738;SDS011;51175;51.186;0.276;2023-09-08T02:53:44;5.55;;;4.15;;
64738;SDS011;51175;51.186;0.276;2023-09-08T02:54:14;5.97;;;4.50;;
64738;SDS011;51175;51.186;0.276;2023-09-08T02:54:45;6.65;;;4.80;;
64738;SDS011;51175;51.186;0.276;2023-09-08T02:55:15;6.28;;;4.35;;
64738;SDS011;51175;51.186;0.276;2023-09-08T02:55:46;5.25;;;4.50;;
64738;SDS011;51175;51.186;0.276;2023-09-08T02:56:16;4.88;;;4.20;;
64738;SDS011;51175;51.186;0.276;2023-09-08T02:56:47;5.90;;;4.35;;
64738;SDS011;51175;51.186;0.276;2023-09-08T02:57:17;5.35;;;4.68;;
64738;SDS011;51175;51.186;0.276;2023-09-08T02:57:48;5.70;;;4.22;;
64738;SDS011;51175;51.186;0.276;2023-09-08T02:58:18;5.00;;;4.07;;
64738;SDS011;51175;51.186;0.276;2023-09-08T02:58:48;5.20;;;4.40;;
64738;SDS011;51175;51.186;0.276;2023-09-08T02:59:19;6.63;;;4.38;;
64738;SDS011;51175;51.186;0.276;2023-09-08T02:59:49;6.68;;;4.28;;
64738;SDS011;51175;51.186;0.276;2023-09-08T03:00:21;6.65;;;4.47;;
64738;SDS011;51175;51.186;0.276;2023-09-08T03:00:51;5.15;;;4.15;;
64738;SDS011;51175;51.186;0.276;2023-09-08T03:01:22;5.00;;;4.03;;
64738;SDS011;51175;51.186;0.276;2023-09-08T03:01:52;8.02;;;4.45;;
64738;SDS011;51175;51.186;0.276;2023-09-08T03:02:24;6.35;;;4.47;;
64738;SDS011;51175;51.186;0.276;2023-09-08T03:02:55;6.68;;;4.55;;
64738;SDS011;51175;51.186;0.276;2023-09-08T03:03:25;8.13;;;4.50;;
64738;SDS011;51175;51.186;0.276;2023-09-08T03:03:56;4.45;;;3.58;;
64738;SDS011;51175;51.186;0.276;2023-09-08T03:04:26;8.13;;;4.43;;
64738;SDS011;51175;51.186;0.276;2023-09-08T03:04:57;8.40;;;4.18;;
64738;SDS011;51175;51.186;0.276;2023-09-08T03:05:27;6.00;;;3.83;;
64738;SDS011;51175;51.186;0.276;2023-09-08T03:05:58;6.75;;;4.55;;
64738;SDS011;51175;51.186;0.276;2023-09-08T03:06:34;5.95;;;4.07;;